Terminal Aerodrome Forecast
Issued by NWS

Current Version | Previous Version | Graphics & Text | Print | Product List | Glossary On
Versions: 1 2 3 4 5 6 7 8 9 10 11 12 13 14 15
230
FTUS41 KILN 102320
TAFLCK
TAF
KLCK 102320Z 1100/1124 26012G18KT P6SM VCSH BKN025
      TEMPO 1100/1102 4SM -SHSN
     FM110400 27010KT P6SM FEW025 BKN035
     FM111500 29010KT P6SM BKN022
     FM112300 29004KT P6SM BKN025=

USA.gov is the U.S. government's official web portal to all federal, state and local government web resources and services.